Flight Track Log - Related Links

Times and Time Zones

All times are in EDT time to prevent confusion due to time zone crossing. See the GJS3618 flight status page for this flight to view local times or setup timezone preferences in your user account.

Time Position Orientation Groundspeed Altitude Reporting Facility
EDT Latitude Longitude Course Direction KTS MPH feet Rate Location/Type
Sat 12:10:50 AM 41.9333 -87.9000 90° East 159 183 2,100  Level Chicago TRACON
Sat 12:11:38 AM 41.9333 -87.8333 90° East 252 290 3,300 1,538 Climbing Chicago TRACON
Sat 12:12:08 AM 41.9575 -87.8075 38° Northeast 281 323 4,100 1,055 Climbing Chicago Center
Sat 12:13:09 AM 42.0336 -87.8064 North 276 318 4,900 1,525 Climbing Chicago Center
Sat 12:14:10 AM 42.1097 -87.8050 North 277 319 7,200 2,331 Climbing Chicago Center
Sat 12:15:10 AM 42.1872 -87.8058 360° North 280 322 9,600 2,231 Climbing Chicago Center
Sat 12:16:11 AM 42.2667 -87.8114 357° North 286 329 11,700 2,066 Climbing Chicago Center
Sat 12:17:12 AM 42.3561 -87.8394 347° North 308 354 13,800 2,213 Climbing Chicago Center
Sat 12:18:13 AM 42.4358 -87.8894 335° Northwest 324 373 16,200 2,182 Climbing Chicago Center
Sat 12:19:13 AM 42.5225 -87.9183 346° North 321 369 18,200 1,835 Climbing Chicago Center
Sat 12:20:14 AM 42.6106 -87.8742 20° North 334 384 19,900 1,525 Climbing Chicago Center
Sat 12:21:15 AM 42.7003 -87.8267 21° North 345 397 21,300 1,475 Climbing Chicago Center
Sat 12:22:16 AM 42.7933 -87.7764 22° Northeast 357 411 22,900 1,339 Climbing Chicago Center
Sat 12:23:16 AM 42.8892 -87.7236 22° Northeast 367 422 24,000 942 Climbing Chicago Center
Sat 12:24:17 AM 42.9914 -87.6675 22° Northeast 391 450 24,800 885 Climbing Chicago Center
Sat 12:25:18 AM 43.0994 -87.6072 22° Northeast 413 475 25,800 1,033 Climbing Chicago Center
Sat 12:26:19 AM 43.2178 -87.5769 11° North 445 512 26,900 1,131 Climbing Chicago Center
Sat 12:27:20 AM 43.3344 -87.6103 348° North 438 504 28,100 1,190 Climbing Chicago Center
Sat 12:28:20 AM 43.4508 -87.6536 345° North 440 506 29,300 942 Climbing Chicago Center
Sat 12:29:21 AM 43.5353 -87.7617 317° Northwest 425 489 30,000 738 Climbing Chicago Center
Sat 12:30:22 AM 43.6028 -87.9253 300° West 426 490 30,800 689 Climbing Chicago Center
Sat 12:31:23 AM 43.6619 -88.0672 300° West 427 491 31,400 645 Climbing Chicago Center
Sat 12:32:23 AM 43.7225 -88.2117 300° West 436 502 32,100 744 Climbing Chicago Center
Sat 12:33:24 AM 43.7814 -88.3578 299° West 439 505 32,900 787 Climbing Chicago Center
Sat 12:34:25 AM 43.8406 -88.5042 299° West 440 506 33,700 787 Climbing Chicago Center
Sat 12:35:26 AM 43.8986 -88.6489 299° West 434 499 34,500 793 Climbing Chicago Center
Sat 12:36:26 AM 43.9575 -88.7942 299° West 434 499 35,300 744 Climbing Chicago Center
Sat 12:37:27 AM 44.0156 -88.9381 299° West 431 496 36,000 344 Climbing Chicago Center
Sat 12:38:28 AM 44.0719 -89.0819 299° West 426 490 36,000  Level Chicago Center
Sat 12:39:28 AM 44.1289 -89.2269 299° West 426 490 36,000 347 Level Chicago Center
Sat 12:40:29 AM 44.1850 -89.3714 298° West 426 490 36,700 689 Climbing Chicago Center
Sat 12:41:30 AM 44.2522 -89.5400 299° West 426 490 37,400 639 Climbing Chicago Center
Sat 12:42:31 AM 44.3081 -89.6850 298° West 424 488 38,000 298 Climbing Chicago Center
Sat 12:43:31 AM 44.3644 -89.8308 298° West 427 491 38,000  Level Chicago Center
Sat 12:44:42 AM 44.4292 -90.0036 298° West 430 495 38,000 45 Level Minneapolis Center
Sat 12:45:43 AM 44.4853 -90.1492 298° West 428 493 38,100  Climbing Minneapolis Center
Sat 12:46:43 AM 44.5419 -90.2942 299° West 425 489 38,000 -50 Descending Minneapolis Center
Sat 12:47:44 AM 44.5958 -90.4394 298° West 421 484 38,000  Level Minneapolis Center
Sat 12:48:45 AM 44.6514 -90.5842 298° West 414 476 38,000  Level Minneapolis Center
Sat 12:49:45 AM 44.7047 -90.7264 298° West 414 476 38,000  Level Minneapolis Center
Sat 12:50:46 AM 44.7575 -90.8681 298° West 412 474 38,000  Level Minneapolis Center
Sat 12:51:46 AM 44.8111 -91.0081 298° West 409 471 38,000  Level Minneapolis Center
Sat 12:52:47 AM 44.8603 -91.1511 296° West 408 470 38,000  Level Minneapolis Center
Sat 12:53:48 AM 44.9111 -91.2928 297° West 407 468 38,000  Level Minneapolis Center
Sat 12:54:48 AM 44.9633 -91.4339 298° West 408 470 38,000  Level Minneapolis Center
Sat 12:55:49 AM 45.0150 -91.5742 298° West 406 467 38,000  Level Minneapolis Center
Sat 12:56:49 AM 45.0667 -91.7150 297° West 406 467 38,000  Level Minneapolis Center
Sat 12:57:50 AM 45.1153 -91.8531 297° West 399 459 38,000  Level Minneapolis Center
Sat 12:58:50 AM 45.1678 -91.9939 298° West 402 463 38,000  Level Minneapolis Center
Sat 12:59:51 AM 45.2186 -92.1353 297° West 405 466 38,000  Level Minneapolis Center
Sat 01:00:55 AM 45.2800 -92.3072 297° West 408 470 38,000  Level Minneapolis Center
Sat 01:01:56 AM 45.3308 -92.4500 297° West 409 471 38,000  Level Minneapolis Center
Sat 01:02:56 AM 45.3711 -92.5639 297° West 408 470 38,000  Level Minneapolis Center
Sat 01:03:57 AM 45.4217 -92.7081 297° West 409 471 38,000  Level Minneapolis Center
Sat 01:04:57 AM 45.4825 -92.8839 296° West 415 478 38,000  Level Minneapolis Center
Sat 01:05:58 AM 45.5328 -93.0322 296° West 418 481 38,000  Level Minneapolis Center
Sat 01:06:58 AM 45.5833 -93.1786 296° West 415 478 38,000  Level Minneapolis Center
Sat 01:07:59 AM 45.6342 -93.3253 296° West 415 478 38,000  Level Minneapolis Center
Sat 01:08:59 AM 45.6842 -93.4744 296° West 418 481 38,000  Level Minneapolis Center
Sat 01:10:00 AM 45.7347 -93.6239 296° West 419 482 38,000  Level Minneapolis Center
Sat 01:11:00 AM 45.7953 -93.8031 296° West 420 483 38,000  Level Minneapolis Center
Sat 01:12:01 AM 45.8458 -93.9564 295° West 425 489 38,000  Level Minneapolis Center
Sat 01:13:01 AM 45.8961 -94.1094 295° West 425 489 38,000  Level Minneapolis Center
Sat 01:14:01 AM 45.9469 -94.2644 295° West 431 496 38,000  Level Minneapolis Center
Sat 01:15:02 AM 45.9967 -94.4206 295° West 433 498 38,000  Level Minneapolis Center
Sat 01:16:02 AM 46.0492 -94.5761 296° West 434 499 38,000  Level Minneapolis Center
Sat 01:17:03 AM 46.0989 -94.7342 294° West 436 502 38,000  Level Minneapolis Center
Sat 01:18:03 AM 46.1503 -94.8931 295° West 437 503 38,000  Level Minneapolis Center
Sat 01:19:03 AM 46.2008 -95.0514 295° West 437 503 38,000  Level Minneapolis Center
Sat 01:20:04 AM 46.2447 -95.1897 295° West 436 502 38,000  Level Minneapolis Center
Sat 01:21:04 AM 46.2942 -95.3483 294° West 434 499 38,000  Level Minneapolis Center
Sat 01:22:04 AM 46.3519 -95.5319 295° West 434 499 38,000  Level Minneapolis Center
Sat 01:23:05 AM 46.4011 -95.6908 294° West 433 498 38,000  Level Minneapolis Center
Sat 01:24:05 AM 46.4492 -95.8464 294° West 438 504 38,000  Level Minneapolis Center
Sat 01:25:05 AM 46.4997 -96.0097 294° West 445 512 38,000  Level Minneapolis Center
Sat 01:26:06 AM 46.5497 -96.1728 294° West 444 511 38,000  Level Minneapolis Center
Sat 01:27:06 AM 46.5989 -96.3372 294° West 446 513 38,000  Level Minneapolis Center
Sat 01:28:06 AM 46.6475 -96.5022 293° West 446 513 38,000  Level Minneapolis Center
Sat 01:29:06 AM 46.6992 -96.6725 294° West 447 514 38,000  Level Minneapolis Center
Sat 01:30:07 AM 46.7469 -96.8322 294° West 446 513 38,000  Level Minneapolis Center
Sat 01:31:07 AM 46.7592 -97.0061 276° West 435 501 38,000  Level Minneapolis Center
Sat 01:32:07 AM 46.7681 -97.1772 274° West 427 491 38,000  Level Minneapolis Center
Sat 01:33:07 AM 46.7758 -97.3483 274° West 423 487 38,000  Level Minneapolis Center
Sat 01:34:08 AM 46.7822 -97.5175 273° West 420 483 38,000  Level Minneapolis Center
Sat 01:35:08 AM 46.7889 -97.6894 273° West 421 484 38,000  Level Minneapolis Center
Sat 01:36:08 AM 46.7947 -97.8608 273° West 423 487 38,000  Level Minneapolis Center
Sat 01:37:08 AM 46.8008 -98.0328 273° West 423 487 38,000  Level Minneapolis Center
Sat 01:38:08 AM 46.8061 -98.2061 273° West 425 489 38,000  Level Minneapolis Center
Sat 01:39:09 AM 46.8131 -98.3811 273° West 429 494 38,000 -50 Level Minneapolis Center
Sat 01:40:09 AM 46.8186 -98.5556 273° West 430 495 37,900  Descending Minneapolis Center
Sat 01:41:09 AM 46.8225 -98.7253 272° West 424 488 38,000 50 Climbing Minneapolis Center
Sat 01:42:09 AM 46.8281 -98.8947 273° West 420 483 38,000  Level Minneapolis Center
Sat 01:43:09 AM 46.8300 -99.0600 271° West 412 474 38,000  Level Minneapolis Center
Sat 01:44:10 AM 46.8344 -99.2294 272° West 415 478 38,000 -50 Level Minneapolis Center
Sat 01:45:10 AM 46.8386 -99.3983 272° West 417 480 37,900  Descending Minneapolis Center
Sat 01:46:10 AM 46.8422 -99.5667 272° West 417 480 38,000 50 Climbing Minneapolis Center
Sat 01:47:10 AM 46.8447 -99.7344 271° West 415 478 38,000  Level Minneapolis Center
Sat 01:48:10 AM 46.8472 -99.9028 271° West 416 479 38,000  Level Minneapolis Center
Sat 01:49:11 AM 46.8508 -100.0708 272° West 415 478 38,000  Level Minneapolis Center
Sat 01:50:11 AM 46.8528 -100.2383 271° West 414 476 38,000  Level Minneapolis Center
Sat 01:51:11 AM 46.8550 -100.4056 271° West 413 475 38,000  Level Minneapolis Center
Sat 01:52:11 AM 46.8569 -100.5819 271° West 409 471 38,000  Level Minneapolis Center
Sat 01:53:11 AM 46.8592 -100.7489 271° West 410 472 38,000  Level Minneapolis Center
Sat 01:54:11 AM 46.8600 -100.9139 270° West 409 471 38,000  Level Minneapolis Center
Sat 01:55:12 AM 46.8603 -101.0839 270° West 415 478 38,000  Level Minneapolis Center
Sat 01:56:12 AM 46.8611 -101.2489 270° West 411 473 38,000  Level Minneapolis Center
Sat 01:57:12 AM 46.8625 -101.4131 271° West 406 467 38,000  Level Minneapolis Center
Sat 01:58:12 AM 46.8633 -101.5758 270° West 404 465 38,000  Level Minneapolis Center
Sat 01:59:12 AM 46.8636 -101.7342 270° West 405 466 38,000  Level Minneapolis Center
Sat 02:00:13 AM 46.8647 -101.8983 271° West 405 466 38,000  Level Minneapolis Center
Sat 02:01:13 AM 46.8642 -102.0628 270° West 405 466 38,000 -50 Level Minneapolis Center
Sat 02:02:13 AM 46.8650 -102.2250 270° West 402 463 37,900  Descending Minneapolis Center
Sat 02:03:13 AM 46.8658 -102.3875 270° West 401 461 38,000 50 Climbing Minneapolis Center
Sat 02:04:13 AM 46.8650 -102.5497 270° West 401 461 38,000  Level Minneapolis Center
Sat 02:05:26 AM 46.8642 -102.7142 270° West 402 463 38,000  Level Minneapolis Center
Sat 02:06:26 AM 46.8444 -102.9047 261° West 395 455 38,000  Level Minneapolis Center
Sat 02:07:26 AM 46.8219 -103.0631 258° West 395 455 38,000  Level Minneapolis Center
Sat 02:08:26 AM 46.8000 -103.2211 259° West 397 457 38,000  Level Minneapolis Center
Sat 02:09:30 AM 46.7767 -103.3764 258° West 394 453 38,000  Level Salt Lake Center
Sat 02:10:31 AM 46.7542 -103.5369 258° West 396 456 38,000  Level Salt Lake Center
Sat 02:11:32 AM 46.7272 -103.7244 258° West 397 457 38,000  Level Salt Lake Center
Sat 02:12:32 AM 46.7033 -103.8819 258° West 397 457 38,000  Level Salt Lake Center
Sat 02:13:33 AM 46.6797 -104.0394 258° West 398 458 38,000  Level Salt Lake Center
Sat 02:14:33 AM 46.6569 -104.1986 258° West 399 459 38,000  Level Salt Lake Center
Sat 02:15:34 AM 46.6325 -104.3603 258° West 402 463 38,000  Level Salt Lake Center
Sat 02:16:35 AM 46.6083 -104.5206 258° West 405 466 38,000  Level Salt Lake Center
Sat 02:17:35 AM 46.5844 -104.6811 258° West 406 467 38,000  Level Salt Lake Center
Sat 02:18:36 AM 46.5594 -104.8425 257° West 407 468 38,000  Level Salt Lake Center
Sat 02:19:37 AM 46.5333 -105.0014 257° West 407 468 38,000  Level Salt Lake Center
Sat 02:20:38 AM 46.5072 -105.1639 257° West 409 471 38,000  Level Salt Lake Center
Sat 02:21:38 AM 46.4825 -105.3258 258° West 411 473 38,000  Level Salt Lake Center
Sat 02:22:39 AM 46.4561 -105.4878 257° West 412 474 38,000  Level Salt Lake Center
Sat 02:23:40 AM 46.4303 -105.6511 257° West 414 476 38,000  Level Salt Lake Center
Sat 02:24:40 AM 46.4031 -105.8139 256° West 415 478 38,000  Level Salt Lake Center
Sat 02:25:41 AM 46.3756 -105.9772 256° West 417 480 38,000  Level Salt Lake Center
Sat 02:26:42 AM 46.3444 -106.1386 254° West 418 481 38,000  Level Salt Lake Center
Sat 02:27:42 AM 46.3117 -106.2956 253° West 415 478 38,000  Level Salt Lake Center
Sat 02:28:43 AM 46.2775 -106.4531 253° West 414 476 38,000  Level Salt Lake Center
Sat 02:29:44 AM 46.2458 -106.6106 254° West 411 473 38,000 -99 Level Salt Lake Center
Sat 02:30:44 AM 46.2117 -106.7644 252° West 408 470 37,800 -397 Descending Salt Lake Center
Sat 02:31:45 AM 46.1800 -106.9197 254° West 406 467 37,200 -744 Descending Salt Lake Center
Sat 02:32:45 AM 46.1408 -107.1042 253° West 404 465 36,300 -744 Descending Salt Lake Center
Sat 02:33:46 AM 46.1117 -107.2519 254° West 392 451 35,700 -639 Descending Salt Lake Center
Sat 02:34:47 AM 46.0975 -107.4114 263° West 407 468 35,000 -744 Descending Salt Lake Center
Sat 02:35:47 AM 46.0967 -107.5967 270° West 430 495 34,200 -744 Descending Salt Lake Center
Sat 02:36:48 AM 46.0964 -107.7653 270° West 426 490 33,500 -694 Descending Salt Lake Center
Sat 02:37:48 AM 46.0958 -107.9247 270° West 406 467 32,800 -694 Descending Salt Lake Center
Sat 02:38:49 AM 46.0939 -108.0789 269° West 392 451 32,100 -689 Descending Salt Lake Center
Sat 02:39:50 AM 46.0922 -108.2531 269° West 409 471 31,400 -694 Descending Salt Lake Center
Sat 02:40:50 AM 46.0903 -108.4186 269° West 417 480 30,700 -694 Descending Salt Lake Center
Sat 02:41:51 AM 46.0886 -108.5836 269° West 419 482 30,000 -1,082 Descending Salt Lake Center
Sat 02:42:52 AM 46.0858 -108.7425 269° West 402 463 28,500 -1,537 Descending Salt Lake Center
Sat 02:43:52 AM 46.0833 -108.9036 269° West 379 436 26,900 -1,438 Descending Salt Lake Center
Sat 02:44:53 AM 46.0803 -109.0533 268° West 379 436 25,600 -1,190 Descending Salt Lake Center
Sat 02:45:53 AM 46.0781 -109.2000 269° West 372 428 24,500 -1,091 Descending Salt Lake Center
Sat 02:46:54 AM 46.0747 -109.3425 268° West 362 417 23,400 -1,131 Descending Salt Lake Center
Sat 02:47:55 AM 46.0708 -109.4928 268° West 352 405 22,200 -1,140 Descending Salt Lake Center
Sat 02:48:55 AM 46.0678 -109.6358 268° West 363 418 21,100 -1,091 Descending Salt Lake Center
Sat 02:49:56 AM 46.0644 -109.7789 268° West 363 418 20,000 -1,033 Descending Salt Lake Center
Sat 02:50:57 AM 46.0603 -109.9225 268° West 354 407 19,000 -992 Descending Salt Lake Center
Sat 02:51:57 AM 46.0564 -110.0489 268° West 341 392 18,000 -893 Descending Salt Lake Center
Sat 02:52:58 AM 46.0533 -110.1758 268° West 334 384 17,200 -942 Descending Salt Lake Center
Sat 02:53:58 AM 46.0481 -110.3192 267° West 327 376 16,100 -1,041 Descending Salt Lake Center
Sat 02:54:59 AM 46.0444 -110.4431 268° West 325 374 15,100 -645 Descending Salt Lake Center
Sat 02:55:59 AM 46.0414 -110.5814 268° West 324 373 14,800 -545 Descending Salt Lake Center
Sat 02:57:00 AM 46.0358 -110.7128 267° West 353 406 14,000 -393 Descending Salt Lake Center
Sat 02:58:01 AM 46.0314 -110.8597 268° West 358 412 14,000 -446 Level Salt Lake Center
Sat 02:59:01 AM 46.0272 -110.9975 268° West 354 407 13,100 -942 Descending Salt Lake Center
Sat 03:00:02 AM 46.0231 -111.1339 268° West 349 402 12,100 -545 Descending Salt Lake Center
Sat 03:01:02 AM 46.0172 -111.2689 266° West 346 398 12,000 -992 Descending Salt Lake Center
Sat 03:02:03 AM 45.9842 -111.3736 246° West 313 360 10,100 -1,686 Descending Salt Lake Center
Sat 03:03:03 AM 45.9186 -111.3828 186° South 282 325 8,600 -1,339 Descending Salt Lake Center
Sat 03:04:04 AM 45.8889 -111.3128 121° Southeast 232 267 7,400 -1,033 Descending Salt Lake Center
Sat 03:05:05 AM 45.8594 -111.2669 133° Southeast 182 209 6,500 -942 Descending Salt Lake Center
Sat 03:06:05 AM 45.8300 -111.2258 136° Southeast 156 180 5,500 -843 Descending Salt Lake Center
Sat 03:07:06 AM 45.8006 -111.1842 135° Southeast 151 174 4,800 -496 Descending Salt Lake Center
Sat 03:08:06 AM 45.7742 -111.1483 137° Southeast 149 171 4,500 -300 Descending Salt Lake Center

Login

Don't have an account? Register now (free) for customized features, flight alerts, and more!